KCAD/CAD METAR and TAF weather

Enter ICAO airport designator
Station Type Date Time Source
KCAD METAR 2019/02/16 03:16 UTC NOAA

KCAD 160316Z AUTO 33014G18KT 10SM OVC014 M07/M10 A2990 RMK AO2 T10701104


Station Type Date Time Source
KCAD Decoded METAR 2019/02/16 03:16 UTC NOAA

Cadillac / Wexford County, MI, United States (KCAD) 44-17N 085-25W
Feb 15, 2019 - 10:16 PM EST / 2019.02.16 0316 UTC
Wind: from the NNW (330 degrees) at 16 MPH (14 KT) gusting to 21 MPH (18 KT):0
Visibility: 10 mile(s):0
Sky conditions: overcast
Temperature: 19.4 F (-7.0 C)
Windchill: 5 F (-15 C):1
Dew Point: 13.3 F (-10.4 C)
Relative Humidity: 76%
Pressure (altimeter): 29.9 in. Hg (1012 hPa)
ob: KCAD 160316Z AUTO 33014G18KT 10SM OVC014 M07/M10 A2990 RMK AO2 T10701104
cycle: 3

Station Type Date Time Source
KCAD TAF UTC NOAA

Error!


Example: see airport list